createdAt,value
2023-05-16T00:02:13.763Z,10.14
2023-05-16T00:05:17.958Z,10.15
2023-05-16T00:08:20.753Z,10.10
2023-05-16T00:11:23.668Z,9.97
2023-05-16T00:14:26.794Z,9.98
2023-05-16T00:17:29.650Z,9.98
2023-05-16T00:20:32.314Z,9.96
2023-05-16T00:23:35.016Z,9.96
2023-05-16T00:26:37.571Z,9.99
2023-05-16T00:29:40.139Z,9.98
2023-05-16T00:32:42.772Z,9.96
2023-05-16T00:35:45.532Z,9.97
2023-05-16T00:38:48.247Z,9.98
2023-05-16T00:41:50.929Z,9.99
2023-05-16T00:44:53.426Z,9.94
2023-05-16T00:47:56.141Z,9.90
2023-05-16T00:50:58.910Z,9.91
2023-05-16T00:54:01.662Z,9.90
2023-05-16T00:57:05.355Z,9.96
2023-05-16T01:00:10.877Z,9.95
2023-05-16T01:03:13.835Z,10.00
2023-05-16T01:06:16.491Z,10.02
2023-05-16T01:09:19.633Z,10.04
2023-05-16T01:12:32.909Z,10.04
2023-05-16T01:16:08.070Z,10.08
2023-05-16T01:19:38.235Z,10.12
2023-05-16T01:22:51.747Z,10.10
2023-05-16T01:26:15.265Z,10.02
2023-05-16T01:29:18.143Z,10.06
2023-05-16T01:32:22.951Z,10.10
2023-05-16T01:35:25.981Z,10.09
2023-05-16T01:38:39.392Z,10.12
2023-05-16T01:41:47.913Z,10.14
2023-05-16T01:45:08.680Z,10.14
2023-05-16T01:48:16.072Z,10.09
2023-05-16T01:51:22.061Z,10.08
2023-05-16T01:54:26.414Z,10.13
2023-05-16T01:57:30.618Z,10.19
2023-05-16T02:00:36.388Z,10.12
2023-05-16T02:03:42.260Z,10.15
2023-05-16T02:06:45.117Z,10.12
2023-05-16T02:09:50.703Z,10.13
2023-05-16T02:12:53.315Z,10.13
2023-05-16T02:15:56.031Z,10.18
2023-05-16T02:19:01.838Z,10.22
2023-05-16T02:22:04.733Z,10.22
2023-05-16T02:25:16.599Z,10.20
2023-05-16T02:28:22.141Z,10.19
2023-05-16T02:31:32.607Z,10.18
2023-05-16T02:34:37.752Z,10.22
2023-05-16T02:37:40.974Z,10.25
2023-05-16T02:40:46.332Z,10.25
2023-05-16T02:43:49.328Z,10.26
2023-05-16T02:46:52.092Z,10.27
2023-05-16T02:49:54.733Z,10.25
2023-05-16T02:52:59.837Z,10.23
2023-05-16T02:56:02.530Z,10.24
2023-05-16T02:59:05.244Z,10.27
2023-05-16T03:02:08.324Z,10.29
2023-05-16T03:05:14.087Z,10.32
2023-05-16T03:08:20.089Z,10.33
2023-05-16T03:11:24.250Z,10.34
2023-05-16T03:14:26.720Z,10.33
2023-05-16T03:17:29.400Z,10.26
2023-05-16T03:20:31.999Z,10.18
2023-05-16T03:23:34.937Z,10.17
2023-05-16T03:26:37.937Z,10.18
2023-05-16T03:29:40.547Z,10.18
2023-05-16T03:32:46.164Z,10.21
2023-05-16T03:35:52.450Z,10.25
2023-05-16T03:38:55.233Z,10.31
2023-05-16T03:41:57.892Z,10.46
2023-05-16T03:45:00.638Z,10.61
2023-05-16T03:48:03.406Z,10.68
2023-05-16T03:51:06.097Z,10.75
2023-05-16T03:54:08.694Z,10.82
2023-05-16T03:57:11.444Z,10.86
2023-05-16T04:00:14.760Z,10.89
2023-05-16T04:03:17.381Z,10.94
2023-05-16T04:06:20.060Z,10.96
2023-05-16T04:09:22.702Z,10.99
2023-05-16T04:12:25.430Z,11.02
2023-05-16T04:15:28.498Z,11.05
2023-05-16T04:18:31.355Z,11.08
2023-05-16T04:21:34.151Z,11.10
2023-05-16T04:24:36.808Z,11.10
2023-05-16T04:27:39.941Z,11.08
2023-05-16T04:30:42.944Z,11.08
2023-05-16T04:33:46.141Z,11.06
2023-05-16T04:36:48.911Z,11.07
2023-05-16T04:39:51.732Z,11.07
2023-05-16T04:42:55.393Z,11.11
2023-05-16T04:45:59.306Z,11.02
2023-05-16T04:49:02.287Z,11.11
2023-05-16T04:52:06.433Z,11.18
2023-05-16T04:55:11.982Z,11.24
2023-05-16T04:58:14.595Z,11.30
2023-05-16T05:01:17.396Z,11.34
2023-05-16T05:04:20.079Z,11.43
2023-05-16T05:07:22.771Z,11.56
2023-05-16T05:10:25.605Z,11.64
2023-05-16T05:13:28.178Z,11.76
2023-05-16T05:16:30.919Z,11.84
2023-05-16T05:19:33.528Z,11.88
2023-05-16T05:22:36.289Z,11.93
2023-05-16T05:25:39.728Z,11.93
2023-05-16T05:28:47.784Z,11.95
2023-05-16T05:31:53.519Z,11.98
2023-05-16T05:34:56.099Z,11.98
2023-05-16T05:37:58.668Z,11.98
2023-05-16T05:41:01.331Z,12.00
2023-05-16T05:44:04.163Z,12.09
2023-05-16T05:47:07.555Z,12.10
2023-05-16T05:50:13.542Z,12.12
2023-05-16T05:53:16.193Z,12.06
2023-05-16T05:56:27.571Z,12.08
2023-05-16T05:59:30.221Z,12.07
2023-05-16T06:02:32.984Z,12.00
2023-05-16T06:05:35.652Z,12.03
2023-05-16T06:08:38.370Z,12.12
2023-05-16T06:11:46.072Z,12.16
2023-05-16T06:14:48.714Z,12.21
2023-05-16T06:17:52.007Z,12.18
2023-05-16T06:20:57.756Z,12.18
2023-05-16T06:24:00.587Z,12.16
2023-05-16T06:27:03.301Z,12.18
2023-05-16T06:30:06.639Z,12.18
2023-05-16T06:33:12.268Z,12.19
2023-05-16T06:36:17.845Z,12.19
2023-05-16T06:39:20.789Z,12.15
2023-05-16T06:42:23.527Z,12.21
2023-05-16T06:45:27.114Z,12.24
2023-05-16T06:48:30.370Z,12.17
2023-05-16T06:51:33.084Z,12.24
2023-05-16T06:54:39.219Z,12.25
2023-05-16T06:57:42.052Z,12.26
2023-05-16T07:00:44.668Z,12.24
2023-05-16T07:03:50.335Z,12.25
2023-05-16T07:06:53.608Z,12.31
2023-05-16T07:09:56.247Z,12.39
2023-05-16T07:13:01.709Z,12.45
2023-05-16T07:16:04.754Z,12.57
2023-05-16T07:19:08.260Z,12.63
2023-05-16T07:22:14.409Z,12.67
2023-05-16T07:25:17.497Z,12.64
2023-05-16T07:28:20.468Z,12.64
2023-05-16T07:31:24.494Z,12.60
2023-05-16T07:34:27.098Z,12.57
2023-05-16T07:37:31.158Z,12.55
2023-05-16T07:40:34.096Z,12.49
2023-05-16T07:43:37.102Z,12.48
2023-05-16T07:46:40.097Z,12.45
2023-05-16T07:49:43.071Z,12.42
2023-05-16T07:52:45.740Z,12.35
2023-05-16T07:55:49.482Z,12.35
2023-05-16T07:58:52.131Z,12.38
2023-05-16T08:01:55.820Z,12.37
2023-05-16T08:04:58.589Z,12.43
2023-05-16T08:08:04.759Z,12.46
2023-05-16T08:11:07.496Z,12.47
2023-05-16T08:14:10.158Z,12.49
2023-05-16T08:17:15.973Z,12.52
2023-05-16T08:20:18.799Z,12.50
2023-05-16T08:23:21.547Z,12.50
2023-05-16T08:26:25.234Z,12.48
2023-05-16T08:29:27.870Z,12.50
2023-05-16T08:32:30.576Z,12.47
2023-05-16T08:35:35.687Z,12.51
2023-05-16T08:38:38.565Z,12.56
2023-05-16T08:41:41.392Z,12.60
2023-05-16T08:44:44.022Z,12.61
2023-05-16T08:47:48.880Z,12.56
2023-05-16T08:50:52.102Z,12.57
2023-05-16T08:54:01.347Z,12.59
2023-05-16T08:57:04.387Z,12.64
2023-05-16T09:00:12.425Z,12.56
2023-05-16T09:03:20.822Z,12.56
2023-05-16T09:06:24.974Z,12.59
2023-05-16T09:09:27.888Z,12.69
2023-05-16T09:12:30.992Z,12.77
2023-05-16T09:15:34.671Z,12.81
2023-05-16T09:18:38.036Z,12.81
2023-05-16T09:21:41.141Z,12.74
2023-05-16T09:24:45.603Z,12.75
2023-05-16T09:27:48.935Z,12.75
2023-05-16T09:30:53.470Z,12.69
2023-05-16T09:33:59.321Z,12.70
2023-05-16T09:37:02.008Z,12.74
2023-05-16T09:40:05.254Z,12.78
2023-05-16T09:43:08.705Z,12.77
2023-05-16T09:46:15.785Z,12.78
2023-05-16T09:49:18.501Z,12.70
2023-05-16T09:52:22.287Z,12.73
2023-05-16T09:55:26.226Z,12.71
2023-05-16T09:58:37.646Z,12.69
2023-05-16T10:01:40.905Z,12.63
2023-05-16T10:04:45.166Z,12.63
2023-05-16T10:07:48.007Z,12.52
2023-05-16T10:10:56.077Z,12.53
2023-05-16T10:13:58.826Z,12.56
2023-05-16T10:17:02.016Z,12.56
2023-05-16T10:20:07.435Z,12.55
2023-05-16T10:23:14.894Z,12.59
2023-05-16T10:26:21.650Z,12.63
2023-05-16T10:29:25.267Z,12.65
2023-05-16T10:32:28.349Z,12.64
2023-05-16T10:35:35.120Z,12.55
2023-05-16T10:38:39.213Z,12.48
2023-05-16T10:41:42.901Z,12.47
2023-05-16T10:44:54.768Z,12.45
2023-05-16T10:48:06.954Z,12.50
2023-05-16T10:51:38.987Z,12.43
2023-05-16T10:54:44.640Z,12.40
2023-05-16T10:57:47.771Z,12.40
2023-05-16T11:00:50.538Z,12.39
2023-05-16T11:03:59.534Z,12.37
2023-05-16T11:07:03.901Z,12.38
2023-05-16T11:10:08.246Z,12.51
2023-05-16T11:13:11.133Z,12.61
2023-05-16T11:16:30.154Z,12.66
2023-05-16T11:19:47.273Z,12.77
2023-05-16T11:22:49.923Z,12.86
2023-05-16T11:25:57.455Z,13.02
2023-05-16T11:29:00.361Z,13.13
2023-05-16T11:32:05.224Z,13.07
2023-05-16T11:35:12.110Z,12.91
2023-05-16T11:38:19.923Z,12.85
2023-05-16T11:41:22.751Z,12.78
2023-05-16T11:44:25.421Z,12.80
2023-05-16T11:47:30.172Z,12.78
2023-05-16T11:50:34.868Z,12.76
2023-05-16T11:53:38.494Z,12.86
2023-05-16T11:56:41.615Z,12.88
2023-05-16T11:59:44.389Z,12.89
2023-05-16T12:02:48.560Z,12.84
2023-05-16T12:05:55.592Z,12.84
2023-05-16T12:08:58.319Z,12.81
2023-05-16T12:12:05.879Z,12.80
2023-05-16T12:15:09.815Z,12.84
2023-05-16T12:18:15.653Z,12.82
2023-05-16T12:21:18.418Z,12.71
2023-05-16T12:24:22.081Z,12.74
2023-05-16T12:27:28.386Z,12.70
2023-05-16T12:30:32.849Z,12.70
2023-05-16T12:33:38.078Z,12.69
2023-05-16T12:36:40.830Z,12.68
2023-05-16T12:39:43.740Z,12.67
2023-05-16T12:42:52.641Z,12.65
2023-05-16T12:45:57.492Z,12.62
2023-05-16T12:49:05.754Z,12.63
2023-05-16T12:52:18.654Z,12.56
2023-05-16T12:55:22.660Z,12.59
2023-05-16T12:58:25.629Z,12.57
2023-05-16T13:01:28.550Z,12.55
2023-05-16T13:04:31.864Z,12.54
2023-05-16T13:07:35.273Z,12.54
2023-05-16T13:10:38.139Z,12.50
2023-05-16T13:13:40.758Z,12.52
2023-05-16T13:16:44.271Z,12.49
2023-05-16T13:19:48.818Z,12.48
2023-05-16T13:22:51.807Z,12.47
2023-05-16T13:25:54.648Z,12.49
2023-05-16T13:28:57.348Z,12.47
2023-05-16T13:32:00.183Z,12.47
2023-05-16T13:35:04.298Z,12.45
2023-05-16T13:38:07.066Z,12.44
2023-05-16T13:41:09.785Z,12.42
2023-05-16T13:44:13.276Z,12.42
2023-05-16T13:47:16.190Z,12.46
2023-05-16T13:50:18.906Z,12.46
2023-05-16T13:53:21.674Z,12.48
2023-05-16T13:56:24.378Z,12.44
2023-05-16T13:59:41.065Z,12.47
2023-05-16T14:02:49.879Z,12.46
2023-05-16T14:05:52.564Z,12.47
2023-05-16T14:08:55.340Z,12.49
2023-05-16T14:11:58.318Z,12.44
2023-05-16T14:15:01.204Z,12.47
2023-05-16T14:18:05.033Z,12.48
2023-05-16T14:21:07.986Z,12.50
2023-05-16T14:24:10.721Z,12.49
2023-05-16T14:27:15.336Z,12.53
2023-05-16T14:30:18.041Z,12.48
2023-05-16T14:33:20.840Z,12.50
2023-05-16T14:36:23.584Z,12.51
2023-05-16T14:39:27.317Z,12.50
2023-05-16T14:42:30.106Z,12.51
2023-05-16T14:45:32.796Z,12.47
2023-05-16T14:48:35.451Z,12.46
2023-05-16T14:51:38.136Z,12.52
2023-05-16T14:54:40.891Z,12.59
2023-05-16T14:57:45.601Z,12.58
2023-05-16T15:00:48.558Z,12.57
2023-05-16T15:03:55.996Z,12.59
2023-05-16T15:06:59.362Z,12.59
2023-05-16T15:10:02.161Z,12.59
2023-05-16T15:13:04.971Z,12.59
2023-05-16T15:16:08.078Z,12.57
2023-05-16T15:19:11.277Z,12.61
2023-05-16T15:22:14.267Z,12.63
2023-05-16T15:25:17.490Z,12.65
2023-05-16T15:28:22.463Z,12.67
2023-05-16T15:31:25.739Z,12.67
2023-05-16T15:34:29.424Z,12.68
2023-05-16T15:37:32.888Z,12.72
2023-05-16T15:40:35.636Z,12.74
2023-05-16T15:43:38.812Z,12.75
2023-05-16T15:46:41.782Z,12.75
2023-05-16T15:49:44.548Z,12.76
2023-05-16T15:52:47.216Z,12.77
2023-05-16T15:55:50.052Z,12.72
2023-05-16T15:58:56.117Z,12.72
2023-05-16T16:01:59.184Z,12.74
2023-05-16T16:05:02.011Z,12.71
2023-05-16T16:08:05.080Z,12.73
2023-05-16T16:11:07.910Z,12.74
2023-05-16T16:14:11.328Z,12.73
2023-05-16T16:17:17.380Z,12.73
2023-05-16T16:20:23.168Z,12.73
2023-05-16T16:23:26.138Z,12.73
2023-05-16T16:26:28.857Z,12.73
2023-05-16T16:29:31.779Z,12.71
2023-05-16T16:32:34.529Z,12.71
2023-05-16T16:35:37.347Z,12.72
2023-05-16T16:38:43.251Z,12.77
2023-05-16T16:41:46.204Z,12.81
2023-05-16T16:44:49.286Z,12.78
2023-05-16T16:47:52.718Z,12.82
2023-05-16T16:50:56.926Z,12.81
2023-05-16T16:53:59.832Z,12.81
2023-05-16T16:57:02.562Z,12.80
2023-05-16T17:00:05.964Z,12.82
2023-05-16T17:03:08.848Z,12.84
2023-05-16T17:06:11.692Z,12.84
2023-05-16T17:09:15.578Z,12.83
2023-05-16T17:12:22.431Z,12.82
2023-05-16T17:15:25.330Z,12.83
2023-05-16T17:18:28.257Z,12.85
2023-05-16T17:21:31.661Z,12.85
2023-05-16T17:24:34.919Z,12.86
2023-05-16T17:27:37.788Z,12.87
2023-05-16T17:30:40.559Z,12.86
2023-05-16T17:33:43.662Z,12.87
2023-05-16T17:36:46.379Z,12.87
2023-05-16T17:39:52.613Z,12.87
2023-05-16T17:42:55.329Z,12.87
2023-05-16T17:45:58.309Z,12.88
2023-05-16T17:49:01.365Z,12.88
2023-05-16T17:52:04.672Z,12.89
2023-05-16T17:55:09.510Z,12.88
2023-05-16T17:58:13.071Z,12.86
2023-05-16T18:01:15.917Z,12.86
2023-05-16T18:04:20.967Z,12.84
2023-05-16T18:07:25.477Z,12.85
2023-05-16T18:10:33.935Z,12.86
2023-05-16T18:13:42.832Z,12.89
2023-05-16T18:16:45.886Z,12.88
2023-05-16T18:19:48.759Z,12.90
2023-05-16T18:22:52.123Z,12.90
2023-05-16T18:25:55.132Z,12.88
2023-05-16T18:28:58.308Z,12.90
2023-05-16T18:32:01.505Z,12.92
2023-05-16T18:35:04.929Z,12.93
2023-05-16T18:38:10.574Z,12.92
2023-05-16T18:41:20.926Z,12.93
2023-05-16T18:44:23.695Z,12.95
2023-05-16T18:47:26.922Z,12.96
2023-05-16T18:50:29.805Z,12.98
2023-05-16T18:53:32.516Z,12.99
2023-05-16T18:56:35.270Z,12.99
2023-05-16T18:59:38.163Z,13.01
2023-05-16T19:02:42.613Z,13.01
2023-05-16T19:05:46.171Z,12.99
2023-05-16T19:08:49.541Z,13.03
2023-05-16T19:11:52.698Z,13.02
2023-05-16T19:14:55.648Z,13.05
2023-05-16T19:17:58.596Z,13.04
2023-05-16T19:21:01.647Z,13.06
2023-05-16T19:24:04.949Z,13.08
2023-05-16T19:27:07.966Z,13.12
2023-05-16T19:30:12.102Z,13.12
2023-05-16T19:33:15.279Z,13.14
2023-05-16T19:36:18.081Z,13.13
2023-05-16T19:39:20.994Z,13.14
2023-05-16T19:42:23.890Z,13.15
2023-05-16T19:45:26.882Z,13.18
2023-05-16T19:48:29.864Z,13.18
2023-05-16T19:51:41.257Z,13.19
2023-05-16T19:54:44.805Z,13.22
2023-05-16T19:57:47.665Z,13.21
2023-05-16T20:00:51.109Z,13.20
2023-05-16T20:03:53.887Z,13.19
2023-05-16T20:06:56.530Z,13.23
2023-05-16T20:09:59.278Z,13.20
2023-05-16T20:13:02.013Z,13.22
2023-05-16T20:16:05.573Z,13.25
2023-05-16T20:19:08.585Z,13.27
2023-05-16T20:22:11.661Z,13.26
2023-05-16T20:25:14.628Z,13.27
2023-05-16T20:28:17.284Z,13.27
2023-05-16T20:31:20.147Z,13.28
2023-05-16T20:34:22.859Z,13.28
2023-05-16T20:37:28.260Z,13.27
2023-05-16T20:40:30.965Z,13.28
2023-05-16T20:43:34.864Z,13.28
2023-05-16T20:46:42.335Z,13.31
2023-05-16T20:49:45.073Z,13.33
2023-05-16T20:52:50.924Z,13.34
2023-05-16T20:55:55.274Z,13.32
2023-05-16T20:59:00.920Z,13.33
2023-05-16T21:02:04.545Z,13.29
2023-05-16T21:05:23.371Z,13.30
2023-05-16T21:08:30.148Z,13.30
2023-05-16T21:11:36.263Z,13.28
2023-05-16T21:14:39.078Z,13.28
2023-05-16T21:17:43.767Z,13.25
2023-05-16T21:20:46.765Z,13.26
2023-05-16T21:23:52.564Z,13.26
2023-05-16T21:26:55.239Z,13.21
2023-05-16T21:29:57.868Z,13.25
2023-05-16T21:33:00.686Z,13.22
2023-05-16T21:36:04.046Z,13.22
2023-05-16T21:39:06.750Z,13.24
2023-05-16T21:42:09.375Z,13.22
2023-05-16T21:45:16.706Z,13.25
2023-05-16T21:48:19.516Z,13.24
2023-05-16T21:51:22.321Z,13.23
2023-05-16T21:54:24.952Z,13.22
2023-05-16T21:57:27.665Z,13.21
2023-05-16T22:00:30.376Z,13.20
2023-05-16T22:03:33.126Z,13.20
2023-05-16T22:06:36.036Z,13.19
2023-05-16T22:09:38.673Z,13.19
2023-05-16T22:12:41.298Z,13.18
2023-05-16T22:15:49.267Z,13.18
2023-05-16T22:18:58.790Z,13.14
2023-05-16T22:22:01.855Z,13.16
2023-05-16T22:25:05.352Z,13.14
2023-05-16T22:28:08.026Z,13.14
2023-05-16T22:31:10.709Z,13.12
2023-05-16T22:34:13.400Z,13.09
2023-05-16T22:37:16.014Z,13.07
2023-05-16T22:40:18.715Z,13.06
2023-05-16T22:43:21.352Z,13.06
2023-05-16T22:46:24.086Z,13.03
2023-05-16T22:49:26.734Z,13.03
2023-05-16T22:52:29.460Z,13.02
2023-05-16T22:55:32.215Z,13.02
2023-05-16T22:58:35.235Z,13.01
2023-05-16T23:01:41.096Z,13.00
2023-05-16T23:04:47.432Z,13.01
2023-05-16T23:07:52.903Z,13.02
2023-05-16T23:10:56.077Z,12.87
2023-05-16T23:13:58.767Z,13.04
2023-05-16T23:17:01.464Z,13.03
2023-05-16T23:20:05.410Z,13.01
2023-05-16T23:23:09.251Z,13.00
2023-05-16T23:26:14.817Z,13.02
2023-05-16T23:29:17.605Z,12.92
2023-05-16T23:32:20.306Z,12.99
2023-05-16T23:35:23.045Z,12.98
2023-05-16T23:38:26.096Z,12.95
2023-05-16T23:41:28.755Z,12.93
2023-05-16T23:44:31.794Z,12.90
2023-05-16T23:47:34.852Z,12.90
2023-05-16T23:50:37.533Z,12.88
2023-05-16T23:53:40.217Z,12.88
2023-05-16T23:56:42.933Z,12.87
2023-05-16T23:59:45.613Z,12.83
